sensor_id;sensor_type;location;lat;lon;timestamp;P1;durP1;ratioP1;P2;durP2;ratioP2
22963;SDS011;11648;49.306;6.934;2023-11-19T00:01:54;1.30;;;0.50;;
22963;SDS011;11648;49.306;6.934;2023-11-19T00:04:21;3.23;;;0.50;;
22963;SDS011;11648;49.306;6.934;2023-11-19T00:06:48;1.43;;;0.50;;
22963;SDS011;11648;49.306;6.934;2023-11-19T00:09:14;0.80;;;0.43;;
22963;SDS011;11648;49.306;6.934;2023-11-19T00:11:43;0.90;;;0.37;;
22963;SDS011;11648;49.306;6.934;2023-11-19T00:14:20;0.70;;;0.33;;
22963;SDS011;11648;49.306;6.934;2023-11-19T00:16:46;0.90;;;0.43;;
22963;SDS011;11648;49.306;6.934;2023-11-19T00:19:13;0.73;;;0.40;;
22963;SDS011;11648;49.306;6.934;2023-11-19T00:21:40;2.07;;;0.60;;
22963;SDS011;11648;49.306;6.934;2023-11-19T00:24:08;1.00;;;0.50;;
22963;SDS011;11648;49.306;6.934;2023-11-19T00:26:35;1.10;;;0.50;;
22963;SDS011;11648;49.306;6.934;2023-11-19T00:29:02;1.20;;;0.60;;
22963;SDS011;11648;49.306;6.934;2023-11-19T00:31:28;1.67;;;0.77;;
22963;SDS011;11648;49.306;6.934;2023-11-19T00:33:57;1.70;;;0.70;;
22963;SDS011;11648;49.306;6.934;2023-11-19T00:36:24;1.37;;;0.80;;
22963;SDS011;11648;49.306;6.934;2023-11-19T00:38:51;2.00;;;1.10;;
22963;SDS011;11648;49.306;6.934;2023-11-19T00:41:21;1.47;;;0.90;;
22963;SDS011;11648;49.306;6.934;2023-11-19T00:43:49;2.50;;;1.43;;
22963;SDS011;11648;49.306;6.934;2023-11-19T00:46:15;2.47;;;1.37;;
22963;SDS011;11648;49.306;6.934;2023-11-19T00:48:43;2.73;;;1.30;;
22963;SDS011;11648;49.306;6.934;2023-11-19T00:51:11;2.90;;;1.10;;
22963;SDS011;11648;49.306;6.934;2023-11-19T00:53:38;2.53;;;1.20;;
22963;SDS011;11648;49.306;6.934;2023-11-19T00:56:05;2.97;;;1.40;;
22963;SDS011;11648;49.306;6.934;2023-11-19T00:58:32;3.10;;;1.40;;
22963;SDS011;11648;49.306;6.934;2023-11-19T01:00:59;3.30;;;1.30;;
22963;SDS011;11648;49.306;6.934;2023-11-19T01:03:26;2.70;;;1.30;;
22963;SDS011;11648;49.306;6.934;2023-11-19T01:05:53;2.40;;;1.30;;
22963;SDS011;11648;49.306;6.934;2023-11-19T01:08:20;2.73;;;1.50;;
22963;SDS011;11648;49.306;6.934;2023-11-19T01:10:47;3.30;;;2.13;;
22963;SDS011;11648;49.306;6.934;2023-11-19T01:13:14;3.50;;;1.70;;
22963;SDS011;11648;49.306;6.934;2023-11-19T01:15:41;3.27;;;1.83;;
22963;SDS011;11648;49.306;6.934;2023-11-19T01:18:08;2.70;;;1.50;;
22963;SDS011;11648;49.306;6.934;2023-11-19T01:20:36;2.47;;;1.20;;
22963;SDS011;11648;49.306;6.934;2023-11-19T01:23:03;2.73;;;1.40;;
22963;SDS011;11648;49.306;6.934;2023-11-19T01:25:30;2.37;;;1.10;;
22963;SDS011;11648;49.306;6.934;2023-11-19T01:27:57;2.07;;;1.20;;
22963;SDS011;11648;49.306;6.934;2023-11-19T01:30:25;2.33;;;1.20;;
22963;SDS011;11648;49.306;6.934;2023-11-19T01:32:52;2.60;;;1.43;;
22963;SDS011;11648;49.306;6.934;2023-11-19T01:35:19;3.10;;;1.53;;
22963;SDS011;11648;49.306;6.934;2023-11-19T01:37:46;2.77;;;1.40;;
22963;SDS011;11648;49.306;6.934;2023-11-19T01:40:12;3.40;;;1.40;;
22963;SDS011;11648;49.306;6.934;2023-11-19T01:42:40;3.07;;;1.53;;
22963;SDS011;11648;49.306;6.934;2023-11-19T01:45:07;2.97;;;1.37;;
22963;SDS011;11648;49.306;6.934;2023-11-19T01:47:36;3.30;;;1.43;;
22963;SDS011;11648;49.306;6.934;2023-11-19T01:50:04;2.57;;;1.23;;
22963;SDS011;11648;49.306;6.934;2023-11-19T01:52:34;3.20;;;1.53;;
22963;SDS011;11648;49.306;6.934;2023-11-19T01:55:05;3.63;;;1.50;;
22963;SDS011;11648;49.306;6.934;2023-11-19T01:57:35;3.53;;;1.60;;
22963;SDS011;11648;49.306;6.934;2023-11-19T02:00:05;3.97;;;1.77;;
22963;SDS011;11648;49.306;6.934;2023-11-19T02:02:39;2.97;;;1.73;;
22963;SDS011;11648;49.306;6.934;2023-11-19T02:05:07;3.67;;;1.80;;
22963;SDS011;11648;49.306;6.934;2023-11-19T02:07:34;3.87;;;1.90;;
22963;SDS011;11648;49.306;6.934;2023-11-19T02:10:01;2.77;;;1.43;;
22963;SDS011;11648;49.306;6.934;2023-11-19T02:12:28;2.83;;;1.50;;
22963;SDS011;11648;49.306;6.934;2023-11-19T02:14:55;3.83;;;1.70;;
22963;SDS011;11648;49.306;6.934;2023-11-19T02:17:25;3.20;;;1.70;;
22963;SDS011;11648;49.306;6.934;2023-11-19T02:19:58;3.50;;;1.70;;
22963;SDS011;11648;49.306;6.934;2023-11-19T02:22:33;3.13;;;1.60;;
22963;SDS011;11648;49.306;6.934;2023-11-19T02:25:05;4.03;;;1.50;;
22963;SDS011;11648;49.306;6.934;2023-11-19T02:27:53;3.40;;;1.70;;
22963;SDS011;11648;49.306;6.934;2023-11-19T02:30:22;3.83;;;1.87;;
22963;SDS011;11648;49.306;6.934;2023-11-19T02:32:54;3.17;;;1.50;;
22963;SDS011;11648;49.306;6.934;2023-11-19T02:35:24;2.77;;;1.67;;
22963;SDS011;11648;49.306;6.934;2023-11-19T02:37:53;2.57;;;1.60;;
22963;SDS011;11648;49.306;6.934;2023-11-19T02:40:20;2.93;;;1.83;;
22963;SDS011;11648;49.306;6.934;2023-11-19T02:42:51;2.73;;;1.70;;
22963;SDS011;11648;49.306;6.934;2023-11-19T02:45:19;3.83;;;2.27;;
22963;SDS011;11648;49.306;6.934;2023-11-19T02:47:46;3.30;;;2.30;;
22963;SDS011;11648;49.306;6.934;2023-11-19T02:50:13;3.43;;;2.10;;
22963;SDS011;11648;49.306;6.934;2023-11-19T02:52:43;3.50;;;1.93;;
22963;SDS011;11648;49.306;6.934;2023-11-19T02:55:12;2.97;;;1.87;;
22963;SDS011;11648;49.306;6.934;2023-11-19T02:57:39;3.13;;;1.60;;
22963;SDS011;11648;49.306;6.934;2023-11-19T03:00:16;2.83;;;1.57;;
22963;SDS011;11648;49.306;6.934;2023-11-19T03:02:51;2.63;;;1.40;;
22963;SDS011;11648;49.306;6.934;2023-11-19T03:05:36;4.37;;;1.30;;
22963;SDS011;11648;49.306;6.934;2023-11-19T03:08:03;2.00;;;1.20;;
22963;SDS011;11648;49.306;6.934;2023-11-19T03:10:30;2.20;;;1.20;;
22963;SDS011;11648;49.306;6.934;2023-11-19T03:12:57;1.63;;;0.93;;
22963;SDS011;11648;49.306;6.934;2023-11-19T03:15:26;1.33;;;0.70;;
22963;SDS011;11648;49.306;6.934;2023-11-19T03:17:52;2.37;;;0.97;;
22963;SDS011;11648;49.306;6.934;2023-11-19T03:20:20;2.97;;;0.90;;
22963;SDS011;11648;49.306;6.934;2023-11-19T03:22:47;1.67;;;0.90;;
22963;SDS011;11648;49.306;6.934;2023-11-19T03:25:14;3.07;;;0.90;;
22963;SDS011;11648;49.306;6.934;2023-11-19T03:27:41;1.60;;;0.90;;
22963;SDS011;11648;49.306;6.934;2023-11-19T03:30:08;1.73;;;1.00;;
22963;SDS011;11648;49.306;6.934;2023-11-19T03:32:36;2.80;;;1.03;;
22963;SDS011;11648;49.306;6.934;2023-11-19T03:35:05;3.07;;;1.33;;
22963;SDS011;11648;49.306;6.934;2023-11-19T03:37:36;1.53;;;0.80;;
22963;SDS011;11648;49.306;6.934;2023-11-19T03:40:03;1.97;;;1.00;;
22963;SDS011;11648;49.306;6.934;2023-11-19T03:42:31;1.70;;;1.00;;
22963;SDS011;11648;49.306;6.934;2023-11-19T03:44:58;2.20;;;1.27;;
22963;SDS011;11648;49.306;6.934;2023-11-19T03:47:25;4.80;;;1.30;;
22963;SDS011;11648;49.306;6.934;2023-11-19T03:49:52;2.50;;;1.10;;
22963;SDS011;11648;49.306;6.934;2023-11-19T03:52:19;1.80;;;0.90;;
22963;SDS011;11648;49.306;6.934;2023-11-19T03:54:46;1.60;;;0.90;;
22963;SDS011;11648;49.306;6.934;2023-11-19T03:57:13;1.63;;;1.00;;
22963;SDS011;11648;49.306;6.934;2023-11-19T03:59:42;2.60;;;1.30;;
22963;SDS011;11648;49.306;6.934;2023-11-19T04:02:09;2.43;;;0.93;;
22963;SDS011;11648;49.306;6.934;2023-11-19T04:04:36;2.27;;;1.00;;
22963;SDS011;11648;49.306;6.934;2023-11-19T04:07:05;1.60;;;0.80;;
22963;SDS011;11648;49.306;6.934;2023-11-19T04:09:32;3.10;;;1.00;;
22963;SDS011;11648;49.306;6.934;2023-11-19T04:11:59;3.60;;;1.00;;
22963;SDS011;11648;49.306;6.934;2023-11-19T04:14:27;2.43;;;0.87;;
22963;SDS011;11648;49.306;6.934;2023-11-19T04:16:54;2.37;;;1.10;;
22963;SDS011;11648;49.306;6.934;2023-11-19T04:19:20;2.37;;;0.77;;
22963;SDS011;11648;49.306;6.934;2023-11-19T04:21:49;3.93;;;0.97;;
22963;SDS011;11648;49.306;6.934;2023-11-19T04:24:17;2.50;;;0.80;;
22963;SDS011;11648;49.306;6.934;2023-11-19T04:26:44;2.33;;;0.70;;
22963;SDS011;11648;49.306;6.934;2023-11-19T04:29:12;2.30;;;0.80;;
22963;SDS011;11648;49.306;6.934;2023-11-19T04:31:41;2.33;;;0.87;;
22963;SDS011;11648;49.306;6.934;2023-11-19T04:34:08;2.57;;;0.80;;
22963;SDS011;11648;49.306;6.934;2023-11-19T04:36:35;2.30;;;0.83;;
22963;SDS011;11648;49.306;6.934;2023-11-19T04:39:04;2.07;;;0.80;;
22963;SDS011;11648;49.306;6.934;2023-11-19T04:41:36;2.87;;;0.70;;
22963;SDS011;11648;49.306;6.934;2023-11-19T04:44:03;2.73;;;0.67;;
22963;SDS011;11648;49.306;6.934;2023-11-19T04:46:29;3.73;;;0.80;;
22963;SDS011;11648;49.306;6.934;2023-11-19T04:48:56;2.03;;;0.80;;
22963;SDS011;11648;49.306;6.934;2023-11-19T04:51:23;2.50;;;0.90;;
22963;SDS011;11648;49.306;6.934;2023-11-19T04:53:50;2.27;;;0.70;;
22963;SDS011;11648;49.306;6.934;2023-11-19T04:56:17;1.90;;;0.63;;
22963;SDS011;11648;49.306;6.934;2023-11-19T04:58:46;3.20;;;1.00;;
22963;SDS011;11648;49.306;6.934;2023-11-19T05:01:13;2.73;;;0.60;;
22963;SDS011;11648;49.306;6.934;2023-11-19T05:03:43;2.23;;;0.60;;
22963;SDS011;11648;49.306;6.934;2023-11-19T05:06:10;2.97;;;0.90;;
22963;SDS011;11648;49.306;6.934;2023-11-19T05:08:37;2.40;;;0.70;;
22963;SDS011;11648;49.306;6.934;2023-11-19T05:11:04;1.53;;;0.67;;
22963;SDS011;11648;49.306;6.934;2023-11-19T05:13:32;4.40;;;1.37;;
22963;SDS011;11648;49.306;6.934;2023-11-19T05:15:59;2.00;;;0.60;;
22963;SDS011;11648;49.306;6.934;2023-11-19T05:18:26;1.87;;;0.60;;
22963;SDS011;11648;49.306;6.934;2023-11-19T05:20:53;1.00;;;0.60;;
22963;SDS011;11648;49.306;6.934;2023-11-19T05:23:20;2.67;;;0.70;;
22963;SDS011;11648;49.306;6.934;2023-11-19T05:25:47;1.37;;;0.70;;
22963;SDS011;11648;49.306;6.934;2023-11-19T05:28:14;2.37;;;0.60;;
22963;SDS011;11648;49.306;6.934;2023-11-19T05:30:41;1.97;;;0.60;;
22963;SDS011;11648;49.306;6.934;2023-11-19T05:33:08;2.17;;;0.50;;
22963;SDS011;11648;49.306;6.934;2023-11-19T05:35:35;1.00;;;0.40;;
22963;SDS011;11648;49.306;6.934;2023-11-19T05:38:02;2.20;;;0.60;;
22963;SDS011;11648;49.306;6.934;2023-11-19T05:40:29;1.77;;;0.60;;
22963;SDS011;11648;49.306;6.934;2023-11-19T05:42:56;3.70;;;1.03;;
22963;SDS011;11648;49.306;6.934;2023-11-19T05:45:23;3.27;;;0.70;;
22963;SDS011;11648;49.306;6.934;2023-11-19T05:47:50;4.10;;;0.77;;
22963;SDS011;11648;49.306;6.934;2023-11-19T05:50:18;2.10;;;0.60;;
22963;SDS011;11648;49.306;6.934;2023-11-19T05:52:46;2.97;;;0.60;;
22963;SDS011;11648;49.306;6.934;2023-11-19T05:55:13;2.33;;;0.70;;
22963;SDS011;11648;49.306;6.934;2023-11-19T05:57:40;2.67;;;1.20;;
22963;SDS011;11648;49.306;6.934;2023-11-19T06:00:10;1.70;;;0.70;;
22963;SDS011;11648;49.306;6.934;2023-11-19T06:02:39;2.57;;;0.63;;
22963;SDS011;11648;49.306;6.934;2023-11-19T06:05:06;4.57;;;0.80;;
22963;SDS011;11648;49.306;6.934;2023-11-19T06:07:33;2.93;;;0.73;;
22963;SDS011;11648;49.306;6.934;2023-11-19T06:10:02;6.23;;;0.77;;
22963;SDS011;11648;49.306;6.934;2023-11-19T06:12:33;4.60;;;0.80;;
22963;SDS011;11648;49.306;6.934;2023-11-19T06:15:07;4.13;;;0.70;;
22963;SDS011;11648;49.306;6.934;2023-11-19T06:17:35;4.10;;;1.13;;
22963;SDS011;11648;49.306;6.934;2023-11-19T06:20:03;2.00;;;0.60;;
22963;SDS011;11648;49.306;6.934;2023-11-19T06:22:31;3.57;;;0.90;;
22963;SDS011;11648;49.306;6.934;2023-11-19T06:24:58;3.53;;;0.87;;
22963;SDS011;11648;49.306;6.934;2023-11-19T06:27:27;2.70;;;0.60;;
22963;SDS011;11648;49.306;6.934;2023-11-19T06:29:53;2.57;;;1.10;;
22963;SDS011;11648;49.306;6.934;2023-11-19T06:32:20;2.23;;;0.87;;
22963;SDS011;11648;49.306;6.934;2023-11-19T06:34:47;3.90;;;0.90;;
22963;SDS011;11648;49.306;6.934;2023-11-19T06:37:14;2.53;;;0.90;;
22963;SDS011;11648;49.306;6.934;2023-11-19T06:39:41;3.17;;;1.03;;
22963;SDS011;11648;49.306;6.934;2023-11-19T06:42:08;2.90;;;1.10;;
22963;SDS011;11648;49.306;6.934;2023-11-19T06:44:35;2.57;;;0.90;;
22963;SDS011;11648;49.306;6.934;2023-11-19T06:47:01;4.50;;;1.13;;
22963;SDS011;11648;49.306;6.934;2023-11-19T06:49:28;3.33;;;1.23;;
22963;SDS011;11648;49.306;6.934;2023-11-19T06:51:55;4.63;;;0.97;;
22963;SDS011;11648;49.306;6.934;2023-11-19T06:54:23;4.73;;;1.00;;
22963;SDS011;11648;49.306;6.934;2023-11-19T06:56:50;5.33;;;1.20;;
22963;SDS011;11648;49.306;6.934;2023-11-19T06:59:16;2.63;;;0.97;;
22963;SDS011;11648;49.306;6.934;2023-11-19T07:01:43;6.40;;;1.20;;
22963;SDS011;11648;49.306;6.934;2023-11-19T07:04:13;4.63;;;1.20;;
22963;SDS011;11648;49.306;6.934;2023-11-19T07:06:40;4.57;;;1.17;;
22963;SDS011;11648;49.306;6.934;2023-11-19T07:09:10;5.13;;;1.10;;
22963;SDS011;11648;49.306;6.934;2023-11-19T07:11:38;4.97;;;1.10;;
22963;SDS011;11648;49.306;6.934;2023-11-19T07:14:07;4.30;;;1.10;;
22963;SDS011;11648;49.306;6.934;2023-11-19T07:16:34;2.60;;;0.90;;
22963;SDS011;11648;49.306;6.934;2023-11-19T07:19:07;6.20;;;1.33;;
22963;SDS011;11648;49.306;6.934;2023-11-19T07:21:34;4.53;;;1.00;;
22963;SDS011;11648;49.306;6.934;2023-11-19T07:24:02;4.83;;;1.10;;
22963;SDS011;11648;49.306;6.934;2023-11-19T07:26:29;4.63;;;1.20;;
22963;SDS011;11648;49.306;6.934;2023-11-19T07:28:55;3.37;;;1.20;;
22963;SDS011;11648;49.306;6.934;2023-11-19T07:31:23;5.17;;;1.40;;
22963;SDS011;11648;49.306;6.934;2023-11-19T07:33:50;2.97;;;1.10;;
22963;SDS011;11648;49.306;6.934;2023-11-19T07:36:17;2.30;;;1.10;;
22963;SDS011;11648;49.306;6.934;2023-11-19T07:38:45;4.47;;;1.27;;
22963;SDS011;11648;49.306;6.934;2023-11-19T07:41:12;3.50;;;1.20;;
22963;SDS011;11648;49.306;6.934;2023-11-19T07:43:40;4.90;;;1.10;;
22963;SDS011;11648;49.306;6.934;2023-11-19T07:46:11;4.87;;;1.27;;
22963;SDS011;11648;49.306;6.934;2023-11-19T07:48:41;4.53;;;1.50;;
22963;SDS011;11648;49.306;6.934;2023-11-19T07:51:10;5.13;;;1.30;;
22963;SDS011;11648;49.306;6.934;2023-11-19T07:53:37;3.53;;;0.93;;
22963;SDS011;11648;49.306;6.934;2023-11-19T07:56:05;5.50;;;1.00;;
22963;SDS011;11648;49.306;6.934;2023-11-19T07:58:32;4.97;;;1.40;;
22963;SDS011;11648;49.306;6.934;2023-11-19T08:00:59;2.87;;;1.17;;
22963;SDS011;11648;49.306;6.934;2023-11-19T08:03:26;5.30;;;1.30;;
22963;SDS011;11648;49.306;6.934;2023-11-19T08:05:56;5.10;;;1.50;;
22963;SDS011;11648;49.306;6.934;2023-11-19T08:08:23;5.03;;;1.40;;
22963;SDS011;11648;49.306;6.934;2023-11-19T08:10:50;6.07;;;1.73;;
22963;SDS011;11648;49.306;6.934;2023-11-19T08:13:18;6.33;;;1.40;;
22963;SDS011;11648;49.306;6.934;2023-11-19T08:15:47;4.97;;;1.10;;
22963;SDS011;11648;49.306;6.934;2023-11-19T08:18:14;4.73;;;1.23;;
22963;SDS011;11648;49.306;6.934;2023-11-19T08:20:41;4.77;;;1.30;;
22963;SDS011;11648;49.306;6.934;2023-11-19T08:23:10;5.33;;;1.07;;
22963;SDS011;11648;49.306;6.934;2023-11-19T08:25:38;5.27;;;1.30;;
22963;SDS011;11648;49.306;6.934;2023-11-19T08:28:05;6.90;;;1.40;;
22963;SDS011;11648;49.306;6.934;2023-11-19T08:30:32;3.27;;;1.67;;
22963;SDS011;11648;49.306;6.934;2023-11-19T08:32:59;9.03;;;1.47;;
22963;SDS011;11648;49.306;6.934;2023-11-19T08:35:29;6.40;;;1.43;;
22963;SDS011;11648;49.306;6.934;2023-11-19T08:37:56;5.20;;;1.37;;
22963;SDS011;11648;49.306;6.934;2023-11-19T08:40:23;4.40;;;1.30;;
22963;SDS011;11648;49.306;6.934;2023-11-19T08:42:52;7.00;;;1.33;;
22963;SDS011;11648;49.306;6.934;2023-11-19T08:45:19;2.97;;;0.90;;
22963;SDS011;11648;49.306;6.934;2023-11-19T08:47:46;5.03;;;1.00;;
22963;SDS011;11648;49.306;6.934;2023-11-19T08:50:13;5.43;;;0.80;;
22963;SDS011;11648;49.306;6.934;2023-11-19T08:52:40;3.90;;;1.00;;
22963;SDS011;11648;49.306;6.934;2023-11-19T08:55:07;4.27;;;1.30;;
22963;SDS011;11648;49.306;6.934;2023-11-19T08:57:36;2.80;;;1.00;;
22963;SDS011;11648;49.306;6.934;2023-11-19T09:00:03;2.97;;;0.87;;
22963;SDS011;11648;49.306;6.934;2023-11-19T09:02:35;7.17;;;1.20;;
22963;SDS011;11648;49.306;6.934;2023-11-19T09:05:05;4.10;;;0.90;;
22963;SDS011;11648;49.306;6.934;2023-11-19T09:07:34;3.17;;;1.10;;
22963;SDS011;11648;49.306;6.934;2023-11-19T09:10:02;5.90;;;1.17;;
22963;SDS011;11648;49.306;6.934;2023-11-19T09:12:31;3.57;;;0.97;;
22963;SDS011;11648;49.306;6.934;2023-11-19T09:14:58;5.80;;;1.00;;
22963;SDS011;11648;49.306;6.934;2023-11-19T09:17:25;3.23;;;0.97;;
22963;SDS011;11648;49.306;6.934;2023-11-19T09:19:53;6.23;;;1.00;;
22963;SDS011;11648;49.306;6.934;2023-11-19T09:22:20;3.00;;;1.00;;
22963;SDS011;11648;49.306;6.934;2023-11-19T09:24:47;5.00;;;1.13;;
22963;SDS011;11648;49.306;6.934;2023-11-19T09:27:14;3.00;;;0.97;;
22963;SDS011;11648;49.306;6.934;2023-11-19T09:29:42;4.27;;;1.00;;
22963;SDS011;11648;49.306;6.934;2023-11-19T09:32:09;3.23;;;1.00;;
22963;SDS011;11648;49.306;6.934;2023-11-19T09:34:36;3.20;;;0.93;;
22963;SDS011;11648;49.306;6.934;2023-11-19T09:37:03;4.47;;;0.87;;
22963;SDS011;11648;49.306;6.934;2023-11-19T09:39:46;2.90;;;1.00;;
22963;SDS011;11648;49.306;6.934;2023-11-19T09:42:13;3.30;;;0.80;;
22963;SDS011;11648;49.306;6.934;2023-11-19T09:44:40;5.17;;;0.80;;
22963;SDS011;11648;49.306;6.934;2023-11-19T09:47:10;3.47;;;0.70;;
22963;SDS011;11648;49.306;6.934;2023-11-19T09:49:39;3.67;;;0.90;;
22963;SDS011;11648;49.306;6.934;2023-11-19T09:52:06;3.67;;;0.80;;
22963;SDS011;11648;49.306;6.934;2023-11-19T09:54:33;5.10;;;1.00;;
22963;SDS011;11648;49.306;6.934;2023-11-19T09:57:01;2.27;;;0.50;;
22963;SDS011;11648;49.306;6.934;2023-11-19T09:59:32;4.60;;;0.67;;
22963;SDS011;11648;49.306;6.934;2023-11-19T10:02:00;3.67;;;0.73;;
22963;SDS011;11648;49.306;6.934;2023-11-19T10:04:29;2.03;;;0.50;;
22963;SDS011;11648;49.306;6.934;2023-11-19T10:06:57;6.03;;;0.70;;
22963;SDS011;11648;49.306;6.934;2023-11-19T10:09:24;4.23;;;0.80;;
22963;SDS011;11648;49.306;6.934;2023-11-19T10:11:51;3.20;;;0.90;;
22963;SDS011;11648;49.306;6.934;2023-11-19T10:14:19;3.73;;;0.63;;
22963;SDS011;11648;49.306;6.934;2023-11-19T10:16:50;3.47;;;0.60;;
22963;SDS011;11648;49.306;6.934;2023-11-19T10:19:20;4.20;;;0.73;;
22963;SDS011;11648;49.306;6.934;2023-11-19T10:21:47;4.27;;;0.53;;
22963;SDS011;11648;49.306;6.934;2023-11-19T10:24:15;3.53;;;1.00;;
22963;SDS011;11648;49.306;6.934;2023-11-19T10:26:45;2.27;;;0.80;;
22963;SDS011;11648;49.306;6.934;2023-11-19T10:29:12;3.23;;;0.70;;
22963;SDS011;11648;49.306;6.934;2023-11-19T10:31:40;3.33;;;0.70;;
22963;SDS011;11648;49.306;6.934;2023-11-19T10:34:24;6.03;;;1.13;;
22963;SDS011;11648;49.306;6.934;2023-11-19T10:36:52;4.00;;;0.70;;
22963;SDS011;11648;49.306;6.934;2023-11-19T10:39:20;6.07;;;0.80;;
22963;SDS011;11648;49.306;6.934;2023-11-19T10:41:47;2.47;;;0.63;;
22963;SDS011;11648;49.306;6.934;2023-11-19T10:44:33;1.93;;;0.47;;
22963;SDS011;11648;49.306;6.934;2023-11-19T10:47:05;4.37;;;0.70;;
22963;SDS011;11648;49.306;6.934;2023-11-19T10:49:34;3.07;;;0.70;;
22963;SDS011;11648;49.306;6.934;2023-11-19T10:52:02;3.83;;;0.70;;
22963;SDS011;11648;49.306;6.934;2023-11-19T10:54:30;3.50;;;0.80;;
22963;SDS011;11648;49.306;6.934;2023-11-19T10:57:01;2.40;;;0.87;;
22963;SDS011;11648;49.306;6.934;2023-11-19T10:59:30;4.33;;;0.60;;
22963;SDS011;11648;49.306;6.934;2023-11-19T11:02:03;3.47;;;0.90;;
22963;SDS011;11648;49.306;6.934;2023-11-19T11:04:33;4.53;;;1.13;;
22963;SDS011;11648;49.306;6.934;2023-11-19T11:07:06;3.33;;;0.67;;
22963;SDS011;11648;49.306;6.934;2023-11-19T11:09:35;5.27;;;0.80;;
22963;SDS011;11648;49.306;6.934;2023-11-19T11:12:02;2.22;;;0.60;;
22963;SDS011;11648;49.306;6.934;2023-11-19T11:14:32;3.17;;;0.70;;
22963;SDS011;11648;49.306;6.934;2023-11-19T11:17:03;3.30;;;0.70;;
22963;SDS011;11648;49.306;6.934;2023-11-19T11:19:34;3.50;;;0.73;;
22963;SDS011;11648;49.306;6.934;2023-11-19T11:22:03;3.83;;;0.90;;
22963;SDS011;11648;49.306;6.934;2023-11-19T11:24:36;2.03;;;0.80;;
22963;SDS011;11648;49.306;6.934;2023-11-19T11:29:47;2.53;;;0.60;;
22963;SDS011;11648;49.306;6.934;2023-11-19T11:38:21;4.53;;;0.90;;
22963;SDS011;11648;49.306;6.934;2023-11-19T11:44:02;4.17;;;0.83;;
22963;SDS011;11648;49.306;6.934;2023-11-19T11:49:09;4.07;;;0.80;;
22963;SDS011;11648;49.306;6.934;2023-11-19T11:59:49;4.07;;;0.80;;
22963;SDS011;11648;49.306;6.934;2023-11-19T12:02:20;4.30;;;1.00;;
22963;SDS011;11648;49.306;6.934;2023-11-19T12:04:50;4.07;;;0.65;;
22963;SDS011;11648;49.306;6.934;2023-11-19T12:07:20;2.97;;;0.80;;
22963;SDS011;11648;49.306;6.934;2023-11-19T12:09:52;1.90;;;0.60;;
22963;SDS011;11648;49.306;6.934;2023-11-19T12:12:32;5.60;;;1.20;;
22963;SDS011;11648;49.306;6.934;2023-11-19T12:15:18;4.63;;;0.80;;
22963;SDS011;11648;49.306;6.934;2023-11-19T12:17:47;6.70;;;1.23;;
22963;SDS011;11648;49.306;6.934;2023-11-19T12:20:18;4.17;;;0.93;;
22963;SDS011;11648;49.306;6.934;2023-11-19T12:22:50;7.43;;;1.13;;
22963;SDS011;11648;49.306;6.934;2023-11-19T12:25:19;4.30;;;0.90;;
22963;SDS011;11648;49.306;6.934;2023-11-19T12:27:51;6.37;;;1.00;;
22963;SDS011;11648;49.306;6.934;2023-11-19T12:30:23;4.87;;;1.00;;
22963;SDS011;11648;49.306;6.934;2023-11-19T12:32:52;3.57;;;0.80;;
22963;SDS011;11648;49.306;6.934;2023-11-19T12:35:23;5.30;;;0.80;;
22963;SDS011;11648;49.306;6.934;2023-11-19T12:37:51;3.80;;;1.00;;
22963;SDS011;11648;49.306;6.934;2023-11-19T12:40:20;2.93;;;0.80;;
22963;SDS011;11648;49.306;6.934;2023-11-19T12:42:53;5.10;;;0.80;;
22963;SDS011;11648;49.306;6.934;2023-11-19T12:45:21;8.10;;;1.00;;
22963;SDS011;11648;49.306;6.934;2023-11-19T12:48:03;3.80;;;0.67;;
22963;SDS011;11648;49.306;6.934;2023-11-19T12:50:53;6.07;;;1.00;;
22963;SDS011;11648;49.306;6.934;2023-11-19T12:53:23;5.87;;;1.13;;
22963;SDS011;11648;49.306;6.934;2023-11-19T12:55:51;4.00;;;1.00;;
22963;SDS011;11648;49.306;6.934;2023-11-19T12:58:32;2.83;;;0.90;;
22963;SDS011;11648;49.306;6.934;2023-11-19T13:01:05;5.27;;;0.77;;
22963;SDS011;11648;49.306;6.934;2023-11-19T13:03:34;3.87;;;0.80;;
22963;SDS011;11648;49.306;6.934;2023-11-19T13:06:06;5.27;;;1.00;;
22963;SDS011;11648;49.306;6.934;2023-11-19T13:08:36;6.80;;;0.90;;
22963;SDS011;11648;49.306;6.934;2023-11-19T13:11:31;5.03;;;0.90;;
22963;SDS011;11648;49.306;6.934;2023-11-19T13:14:02;5.53;;;0.93;;
22963;SDS011;11648;49.306;6.934;2023-11-19T13:16:31;6.77;;;1.00;;
22963;SDS011;11648;49.306;6.934;2023-11-19T13:18:59;3.60;;;0.97;;
22963;SDS011;11648;49.306;6.934;2023-11-19T13:21:26;5.87;;;1.00;;
22963;SDS011;11648;49.306;6.934;2023-11-19T13:23:53;5.83;;;1.20;;
22963;SDS011;11648;49.306;6.934;2023-11-19T13:26:20;5.00;;;1.00;;
22963;SDS011;11648;49.306;6.934;2023-11-19T13:28:47;4.50;;;0.90;;
22963;SDS011;11648;49.306;6.934;2023-11-19T13:31:17;6.03;;;0.90;;
22963;SDS011;11648;49.306;6.934;2023-11-19T13:33:44;4.90;;;1.00;;
22963;SDS011;11648;49.306;6.934;2023-11-19T13:36:11;4.87;;;0.90;;
22963;SDS011;11648;49.306;6.934;2023-11-19T13:38:44;3.87;;;0.80;;
22963;SDS011;11648;49.306;6.934;2023-11-19T13:41:12;5.83;;;1.10;;
22963;SDS011;11648;49.306;6.934;2023-11-19T13:43:40;5.80;;;1.00;;
22963;SDS011;11648;49.306;6.934;2023-11-19T13:46:07;3.63;;;0.90;;
22963;SDS011;11648;49.306;6.934;2023-11-19T13:48:37;5.93;;;1.13;;
22963;SDS011;11648;49.306;6.934;2023-11-19T13:51:04;5.17;;;1.10;;
22963;SDS011;11648;49.306;6.934;2023-11-19T13:53:32;6.53;;;0.90;;
22963;SDS011;11648;49.306;6.934;2023-11-19T13:56:17;8.07;;;0.90;;
22963;SDS011;11648;49.306;6.934;2023-11-19T13:58:44;5.50;;;1.00;;
22963;SDS011;11648;49.306;6.934;2023-11-19T14:01:11;5.33;;;1.17;;
22963;SDS011;11648;49.306;6.934;2023-11-19T14:03:40;3.30;;;1.00;;
22963;SDS011;11648;49.306;6.934;2023-11-19T14:06:08;4.70;;;1.20;;
22963;SDS011;11648;49.306;6.934;2023-11-19T14:08:35;6.03;;;1.10;;
22963;SDS011;11648;49.306;6.934;2023-11-19T14:11:02;4.63;;;1.20;;
22963;SDS011;11648;49.306;6.934;2023-11-19T14:13:29;3.37;;;1.00;;
22963;SDS011;11648;49.306;6.934;2023-11-19T14:15:56;4.77;;;1.03;;
22963;SDS011;11648;49.306;6.934;2023-11-19T14:18:23;7.33;;;1.30;;
22963;SDS011;11648;49.306;6.934;2023-11-19T14:20:53;6.10;;;1.00;;
22963;SDS011;11648;49.306;6.934;2023-11-19T14:23:20;6.20;;;0.90;;
22963;SDS011;11648;49.306;6.934;2023-11-19T14:25:47;6.33;;;1.17;;
22963;SDS011;11648;49.306;6.934;2023-11-19T14:28:13;4.23;;;1.23;;
22963;SDS011;11648;49.306;6.934;2023-11-19T14:30:40;5.40;;;0.73;;
22963;SDS011;11648;49.306;6.934;2023-11-19T14:33:08;5.43;;;1.03;;
22963;SDS011;11648;49.306;6.934;2023-11-19T14:35:35;7.43;;;1.67;;
22963;SDS011;11648;49.306;6.934;2023-11-19T14:38:02;6.60;;;1.10;;
22963;SDS011;11648;49.306;6.934;2023-11-19T14:40:31;5.03;;;1.10;;
22963;SDS011;11648;49.306;6.934;2023-11-19T14:43:01;7.90;;;1.30;;
22963;SDS011;11648;49.306;6.934;2023-11-19T14:45:28;5.97;;;0.90;;
22963;SDS011;11648;49.306;6.934;2023-11-19T14:48:04;7.20;;;1.10;;
22963;SDS011;11648;49.306;6.934;2023-11-19T14:50:31;6.60;;;1.17;;
22963;SDS011;11648;49.306;6.934;2023-11-19T14:52:58;8.67;;;1.50;;
22963;SDS011;11648;49.306;6.934;2023-11-19T14:55:25;9.03;;;1.50;;
22963;SDS011;11648;49.306;6.934;2023-11-19T14:57:52;7.03;;;1.27;;
22963;SDS011;11648;49.306;6.934;2023-11-19T15:00:32;6.00;;;1.10;;
22963;SDS011;11648;49.306;6.934;2023-11-19T15:03:00;5.67;;;1.33;;
22963;SDS011;11648;49.306;6.934;2023-11-19T15:05:30;7.23;;;1.10;;
22963;SDS011;11648;49.306;6.934;2023-11-19T15:07:57;5.03;;;1.03;;
22963;SDS011;11648;49.306;6.934;2023-11-19T15:10:24;5.03;;;0.90;;
22963;SDS011;11648;49.306;6.934;2023-11-19T15:12:52;6.23;;;1.20;;
22963;SDS011;11648;49.306;6.934;2023-11-19T15:15:20;5.77;;;1.23;;
22963;SDS011;11648;49.306;6.934;2023-11-19T15:17:51;5.73;;;1.10;;
22963;SDS011;11648;49.306;6.934;2023-11-19T15:20:18;9.17;;;1.40;;